createdAt,value
2023-04-16T00:00:50.523Z,82.36
2023-04-16T00:06:07.552Z,82.30
2023-04-16T00:11:10.763Z,82.21
2023-04-16T00:16:14.127Z,82.44
2023-04-16T00:21:17.283Z,82.74
2023-04-16T00:26:20.825Z,82.90
2023-04-16T00:31:32.604Z,82.96
2023-04-16T00:36:35.818Z,82.92
2023-04-16T00:41:39.016Z,82.86
2023-04-16T00:46:46.259Z,83.07
2023-04-16T00:51:49.543Z,83.04
2023-04-16T00:56:52.743Z,83.11
2023-04-16T01:01:56.124Z,83.19
2023-04-16T01:07:00.847Z,83.18
2023-04-16T01:12:04.018Z,83.29
2023-04-16T01:17:07.125Z,83.32
2023-04-16T01:22:10.235Z,83.18
2023-04-16T01:27:13.334Z,83.29
2023-04-16T01:32:16.685Z,83.41
2023-04-16T01:37:19.866Z,83.49
2023-04-16T01:42:22.888Z,83.56
2023-04-16T01:47:26.288Z,83.59
2023-04-16T01:52:29.476Z,83.59
2023-04-16T01:57:32.580Z,83.78
2023-04-16T02:02:36.839Z,83.82
2023-04-16T02:07:40.025Z,83.90
2023-04-16T02:12:43.033Z,84.28
2023-04-16T02:17:46.916Z,84.08
2023-04-16T02:22:50.061Z,84.02
2023-04-16T02:27:53.177Z,84.12
2023-04-16T02:32:56.201Z,84.18
2023-04-16T02:38:00.007Z,84.25
2023-04-16T02:43:03.603Z,84.28
2023-04-16T02:48:09.016Z,84.31
2023-04-16T02:53:12.174Z,84.25
2023-04-16T02:58:15.721Z,84.29
2023-04-16T03:03:19.047Z,84.33
2023-04-16T03:08:22.326Z,84.58
2023-04-16T03:13:25.624Z,84.46
2023-04-16T03:18:28.728Z,84.15
2023-04-16T03:23:32.343Z,83.85
2023-04-16T03:28:35.558Z,83.87
2023-04-16T03:33:38.603Z,83.86
2023-04-16T03:38:41.667Z,83.76
2023-04-16T03:43:45.002Z,83.94
2023-04-16T03:48:48.092Z,84.10
2023-04-16T03:53:51.203Z,84.30
2023-04-16T03:58:54.418Z,84.54
2023-04-16T04:03:57.592Z,84.54
2023-04-16T04:09:00.863Z,84.63
2023-04-16T04:14:05.424Z,84.42
2023-04-16T04:19:08.791Z,84.30
2023-04-16T04:24:12.220Z,84.13
2023-04-16T04:29:15.498Z,84.06
2023-04-16T04:34:19.454Z,84.38
2023-04-16T04:39:23.151Z,84.40
2023-04-16T04:44:26.248Z,84.28
2023-04-16T04:49:30.801Z,84.32
2023-04-16T04:54:34.311Z,84.27
2023-04-16T04:59:37.407Z,84.30
2023-04-16T05:04:40.462Z,84.27
2023-04-16T05:09:43.625Z,84.30
2023-04-16T05:14:46.846Z,84.26
2023-04-16T05:19:49.938Z,84.16
2023-04-16T05:24:53.062Z,83.75
2023-04-16T05:29:56.396Z,83.76
2023-04-16T05:34:59.365Z,83.67
2023-04-16T05:40:02.879Z,83.46
2023-04-16T05:45:07.182Z,83.39
2023-04-16T05:50:11.347Z,83.13
2023-04-16T05:55:14.504Z,83.37
2023-04-16T06:00:18.233Z,83.42
2023-04-16T06:05:21.526Z,83.52
2023-04-16T06:10:24.700Z,83.40
2023-04-16T06:15:28.090Z,83.15
2023-04-16T06:20:31.624Z,83.10
2023-04-16T06:25:34.827Z,83.00
2023-04-16T06:30:37.928Z,83.22
2023-04-16T06:35:41.095Z,83.00
2023-04-16T06:40:44.345Z,82.81
2023-04-16T06:45:47.375Z,82.76
2023-04-16T06:50:51.201Z,82.24
2023-04-16T06:55:54.293Z,82.56
2023-04-16T07:00:57.664Z,82.29
2023-04-16T07:06:00.922Z,82.77
2023-04-16T07:11:04.128Z,81.60
2023-04-16T07:16:07.360Z,80.74
2023-04-16T07:21:10.949Z,80.67
2023-04-16T07:26:14.146Z,80.46
2023-04-16T07:31:17.613Z,80.04
2023-04-16T07:36:21.082Z,79.63
2023-04-16T07:41:24.729Z,79.31
2023-04-16T07:46:36.138Z,79.04
2023-04-16T07:51:47.398Z,78.61
2023-04-16T07:56:50.637Z,78.00
2023-04-16T08:01:54.603Z,77.76
2023-04-16T08:06:57.753Z,77.43
2023-04-16T08:12:01.791Z,76.88
2023-04-16T08:17:05.008Z,75.41
2023-04-16T08:22:08.297Z,75.21
2023-04-16T08:27:19.347Z,76.38
2023-04-16T08:32:23.548Z,76.60
2023-04-16T08:37:27.043Z,76.71
2023-04-16T08:42:41.653Z,77.30
2023-04-16T08:47:52.945Z,77.39
2023-04-16T08:53:01.008Z,77.96
2023-04-16T08:58:19.525Z,78.28
2023-04-16T09:03:23.362Z,78.57
2023-04-16T09:08:29.800Z,78.20
2023-04-16T09:13:33.122Z,77.86
2023-04-16T09:18:36.234Z,77.35
2023-04-16T09:23:40.266Z,77.32
2023-04-16T09:28:49.584Z,77.04
2023-04-16T09:34:07.048Z,76.33
2023-04-16T09:39:22.558Z,75.91
2023-04-16T09:44:39.736Z,76.00
2023-04-16T09:49:43.673Z,75.89
2023-04-16T09:54:51.317Z,75.72
2023-04-16T10:00:03.041Z,75.92
2023-04-16T10:05:06.993Z,76.14
2023-04-16T10:10:10.784Z,75.93
2023-04-16T10:15:14.082Z,76.14
2023-04-16T10:20:19.060Z,76.40
2023-04-16T10:25:23.593Z,76.85
2023-04-16T10:30:28.227Z,76.57
2023-04-16T10:35:31.630Z,76.33
2023-04-16T10:40:35.697Z,76.04
2023-04-16T10:45:38.980Z,76.54
2023-04-16T10:50:42.081Z,76.31
2023-04-16T10:55:58.830Z,76.74
2023-04-16T11:01:13.535Z,76.85
2023-04-16T11:06:24.904Z,76.48
2023-04-16T11:11:39.685Z,76.14
2023-04-16T11:16:42.965Z,75.86
2023-04-16T11:21:46.701Z,76.47
2023-04-16T11:26:52.422Z,76.84
2023-04-16T11:31:55.794Z,76.96
2023-04-16T11:36:59.501Z,77.69
2023-04-16T11:42:02.646Z,77.68
2023-04-16T11:47:07.942Z,77.50
2023-04-16T11:52:11.402Z,77.92
2023-04-16T11:57:28.039Z,77.36
2023-04-16T12:02:51.655Z,77.08
2023-04-16T12:07:56.429Z,77.10
2023-04-16T12:13:18.054Z,76.88
2023-04-16T12:18:24.505Z,76.96
2023-04-16T12:23:31.016Z,76.38
2023-04-16T12:28:40.392Z,75.99
2023-04-16T12:33:43.394Z,75.82
2023-04-16T12:38:46.765Z,76.01
2023-04-16T12:43:49.931Z,76.42
2023-04-16T12:48:52.996Z,76.36
2023-04-16T12:53:56.139Z,75.87
2023-04-16T12:58:59.271Z,75.62
2023-04-16T13:04:02.611Z,75.35
2023-04-16T13:09:06.260Z,75.20
2023-04-16T13:14:09.368Z,75.08
2023-04-16T13:19:12.785Z,74.64
2023-04-16T13:24:16.403Z,74.26
2023-04-16T13:29:20.564Z,74.26
2023-04-16T13:34:23.948Z,73.93
2023-04-16T13:39:27.367Z,74.15
2023-04-16T13:44:30.770Z,74.21
2023-04-16T13:49:36.145Z,74.14
2023-04-16T13:54:40.768Z,74.00
2023-04-16T13:59:44.285Z,73.83
2023-04-16T14:04:47.737Z,72.81
2023-04-16T14:09:50.914Z,72.42
2023-04-16T14:14:54.132Z,71.99
2023-04-16T14:19:57.332Z,71.89
2023-04-16T14:25:01.355Z,71.60
2023-04-16T14:30:06.509Z,71.71
2023-04-16T14:35:10.449Z,72.17
2023-04-16T14:40:13.793Z,72.96
2023-04-16T14:45:17.062Z,73.10
2023-04-16T14:50:20.112Z,73.11
2023-04-16T14:55:23.397Z,73.43
2023-04-16T15:00:28.964Z,73.80
2023-04-16T15:05:32.349Z,73.74
2023-04-16T15:10:35.660Z,73.82
2023-04-16T15:15:38.794Z,74.28
2023-04-16T15:20:42.180Z,74.38
2023-04-16T15:25:45.394Z,74.63
2023-04-16T15:30:48.637Z,74.93
2023-04-16T15:35:51.927Z,75.01
2023-04-16T15:40:55.052Z,75.23
2023-04-16T15:45:58.285Z,75.36
2023-04-16T15:51:01.471Z,75.19
2023-04-16T15:56:05.076Z,75.25
2023-04-16T16:01:08.888Z,75.32
2023-04-16T16:06:11.982Z,75.51
2023-04-16T16:11:15.092Z,75.50
2023-04-16T16:16:18.230Z,75.37
2023-04-16T16:21:21.409Z,75.32
2023-04-16T16:26:24.718Z,75.47
2023-04-16T16:31:27.947Z,75.57
2023-04-16T16:36:32.671Z,75.44
2023-04-16T16:41:42.081Z,75.62
2023-04-16T16:46:45.413Z,75.85
2023-04-16T16:51:48.972Z,75.96
2023-04-16T16:56:53.390Z,75.95
2023-04-16T17:01:56.563Z,76.07
2023-04-16T17:07:00.023Z,76.34
2023-04-16T17:12:03.332Z,76.40
2023-04-16T17:17:06.531Z,76.43
2023-04-16T17:22:10.835Z,76.46
2023-04-16T17:27:14.183Z,76.41
2023-04-16T17:32:17.379Z,76.50
2023-04-16T17:37:20.502Z,76.38
2023-04-16T17:42:24.932Z,76.31
2023-04-16T17:47:28.313Z,76.39
2023-04-16T17:52:31.877Z,76.54
2023-04-16T17:57:35.386Z,76.62
2023-04-16T18:02:41.101Z,76.64
2023-04-16T18:07:44.454Z,76.81
2023-04-16T18:12:47.985Z,76.88
2023-04-16T18:17:51.255Z,77.09
2023-04-16T18:22:54.602Z,77.19
2023-04-16T18:27:59.052Z,77.21
2023-04-16T18:38:08.356Z,76.94
2023-04-16T18:43:11.533Z,77.07
2023-04-16T18:48:14.636Z,77.28
2023-04-16T18:53:17.963Z,77.35
2023-04-16T18:58:21.888Z,77.46
2023-04-16T19:03:27.525Z,77.58
2023-04-16T19:08:31.052Z,77.50
2023-04-16T19:13:34.150Z,77.84
2023-04-16T19:18:38.630Z,77.94
2023-04-16T19:23:41.704Z,77.93
2023-04-16T19:28:46.226Z,78.04
2023-04-16T19:33:49.343Z,78.39
2023-04-16T19:38:52.686Z,78.36
2023-04-16T19:43:55.874Z,78.49
2023-04-16T19:48:59.094Z,78.54
2023-04-16T19:54:02.497Z,78.75
2023-04-16T19:59:05.617Z,78.90
2023-04-16T20:04:08.923Z,78.96
2023-04-16T20:09:12.719Z,79.19
2023-04-16T20:14:16.038Z,79.03
2023-04-16T20:19:19.772Z,79.02
2023-04-16T20:24:24.335Z,79.39
2023-04-16T20:29:27.818Z,79.64
2023-04-16T20:34:31.122Z,79.67
2023-04-16T20:39:34.454Z,79.68
2023-04-16T20:44:41.643Z,79.61
2023-04-16T20:49:46.429Z,79.60
2023-04-16T20:54:52.270Z,79.76
2023-04-16T20:59:56.582Z,79.88
2023-04-16T21:04:59.701Z,79.68
2023-04-16T21:10:03.034Z,79.80
2023-04-16T21:15:07.668Z,79.85
2023-04-16T21:20:13.678Z,79.59
2023-04-16T21:25:17.160Z,79.72
2023-04-16T21:30:20.246Z,79.97
2023-04-16T21:35:23.352Z,80.10
2023-04-16T21:40:26.985Z,79.97
2023-04-16T21:45:31.106Z,80.25
2023-04-16T21:50:34.146Z,80.46
2023-04-16T21:55:38.040Z,80.53
2023-04-16T22:00:41.188Z,80.16
2023-04-16T22:05:46.143Z,80.19
2023-04-16T22:10:49.209Z,80.55
2023-04-16T22:15:53.741Z,80.81
2023-04-16T22:20:56.855Z,80.89
2023-04-16T22:26:00.051Z,80.79
2023-04-16T22:31:03.270Z,80.88
2023-04-16T22:36:07.108Z,80.92
2023-04-16T22:41:10.181Z,81.19
2023-04-16T22:46:13.376Z,81.29
2023-04-16T22:51:16.709Z,81.10
2023-04-16T22:56:20.378Z,81.29
2023-04-16T23:01:24.830Z,81.38
2023-04-16T23:06:28.084Z,81.63
2023-04-16T23:11:31.382Z,81.70
2023-04-16T23:16:34.404Z,81.22
2023-04-16T23:21:37.423Z,81.10
2023-04-16T23:26:40.604Z,81.17
2023-04-16T23:31:43.654Z,81.07
2023-04-16T23:36:46.826Z,81.14
2023-04-16T23:41:49.820Z,81.43
2023-04-16T23:46:53.188Z,81.30
2023-04-16T23:51:56.264Z,81.40
2023-04-16T23:56:59.339Z,81.06
